Time;durP1;ratioP1;P1;durP2;ratioP2;P2;SDS_P1;SDS_P2;PMS_P1;PMS_P2;Temp;Humidity;BMP_temperature;BMP_pressure;BME280_temperature;BME280_humidity;BME280_pressure;Samples;Min_cycle;Max_cycle;Signal;HPM_P1;HPM_P2
2021/09/06 00:01:40;;;;;;;9.75;6.50;;;;;;;10.47;100.00;101467.72;5227064;28;20097;-76
2021/09/06 00:04:10;;;;;;;9.68;7.20;;;;;;;10.51;100.00;101465.00;5222461;28;20040;-77
2021/09/06 00:06:41;;;;;;;10.43;6.53;;;;;;;10.59;100.00;101467.47;5222454;28;20054;-78
2021/09/06 00:09:11;;;;;;;9.55;6.85;;;;;;;10.52;100.00;101460.66;5214132;28;20591;-77
2021/09/06 00:11:41;;;;;;;12.77;8.45;;;;;;;10.55;100.00;101461.44;5223815;28;20036;-76
2021/09/06 00:14:12;;;;;;;14.35;8.50;;;;;;;10.56;100.00;101462.31;5221049;28;20033;-75
2021/09/06 00:16:42;;;;;;;12.10;8.18;;;;;;;10.65;100.00;101462.13;5216838;28;20037;-75
2021/09/06 00:19:12;;;;;;;13.68;8.15;;;;;;;10.69;100.00;101458.53;5220262;28;20076;-77
2021/09/06 00:21:42;;;;;;;13.98;9.13;;;;;;;10.69;100.00;101455.94;5211451;28;20029;-78
2021/09/06 00:24:13;;;;;;;13.50;7.97;;;;;;;10.50;100.00;101457.22;5212360;28;20056;-77
2021/09/06 00:26:43;;;;;;;15.52;8.68;;;;;;;10.52;100.00;101466.72;5220648;28;20020;-77
2021/09/06 00:29:13;;;;;;;12.50;7.75;;;;;;;10.68;100.00;101462.06;5220919;28;20036;-78
2021/09/06 00:31:44;;;;;;;14.38;8.00;;;;;;;10.48;100.00;101464.22;5226065;28;20029;-78
2021/09/06 00:34:14;;;;;;;12.73;8.18;;;;;;;10.65;100.00;101472.59;5219886;28;20534;-77
2021/09/06 00:36:44;;;;;;;10.77;7.13;;;;;;;10.84;100.00;101473.91;5223006;28;20380;-77
2021/09/06 00:39:14;;;;;;;10.32;7.47;;;;;;;10.78;100.00;101469.66;5220822;28;20029;-75
2021/09/06 00:41:45;;;;;;;11.70;7.72;;;;;;;10.66;100.00;101472.53;5222226;28;20032;-77
2021/09/06 00:44:15;;;;;;;11.75;7.28;;;;;;;10.68;100.00;101462.06;5220372;28;20487;-77
2021/09/06 00:46:47;;;;;;;14.15;8.18;;;;;;;10.58;100.00;101465.75;5222859;28;20087;-78
2021/09/06 00:49:21;;;;;;;12.55;7.60;;;;;;;10.47;100.00;101470.31;5220062;28;20108;-78
2021/09/06 00:51:51;;;;;;;10.70;7.63;;;;;;;10.35;100.00;101465.38;5210083;28;20051;-77
2021/09/06 00:54:21;;;;;;;10.75;7.45;;;;;;;10.40;100.00;101477.47;5208167;28;20025;-78
2021/09/06 00:56:53;;;;;;;10.35;6.80;;;;;;;10.50;100.00;101475.50;5219403;28;20526;-77
2021/09/06 00:59:23;;;;;;;8.82;6.50;;;;;;;10.53;100.00;101473.66;5223906;28;20076;-76
2021/09/06 01:01:53;;;;;;;11.30;7.07;;;;;;;10.37;100.00;101472.28;5226204;28;20021;-77
2021/09/06 01:04:24;;;;;;;11.00;6.97;;;;;;;10.44;100.00;101473.00;5219273;28;20034;-78
2021/09/06 01:06:54;;;;;;;10.45;7.25;;;;;;;10.34;100.00;101468.88;5223029;28;20033;-77
2021/09/06 01:09:24;;;;;;;14.13;8.07;;;;;;;10.39;100.00;101474.88;5220485;28;20126;-78
2021/09/06 01:11:55;;;;;;;10.98;7.60;;;;;;;10.51;100.00;101470.25;5203671;28;20021;-78
2021/09/06 01:14:25;;;;;;;10.50;6.80;;;;;;;10.58;100.00;101470.97;5219333;28;20025;-77
2021/09/06 01:16:55;;;;;;;13.90;7.95;;;;;;;10.46;100.00;101481.66;5219208;28;20565;-76
2021/09/06 01:19:26;;;;;;;11.23;7.15;;;;;;;10.60;100.00;101479.63;5216530;28;20429;-76
2021/09/06 01:21:56;;;;;;;15.20;8.48;;;;;;;10.52;100.00;101481.56;5192166;28;20060;-76
2021/09/06 01:24:27;;;;;;;13.35;7.97;;;;;;;10.31;100.00;101476.78;5213992;28;20025;-76
2021/09/06 01:26:57;;;;;;;13.95;8.88;;;;;;;10.22;100.00;101479.56;5221688;28;20021;-77
2021/09/06 01:29:27;;;;;;;13.73;8.50;;;;;;;10.17;100.00;101478.81;5221496;28;20582;-77
2021/09/06 01:31:58;;;;;;;13.07;7.85;;;;;;;10.03;100.00;101466.00;5225981;28;20029;-77
2021/09/06 01:34:28;;;;;;;12.80;7.60;;;;;;;10.03;100.00;101472.97;5219830;28;20045;-76
2021/09/06 01:37:00;;;;;;;13.98;8.95;;;;;;;9.96;100.00;101473.97;5221521;28;20491;-77
2021/09/06 01:39:30;;;;;;;14.30;8.10;;;;;;;10.16;100.00;101467.47;5220500;28;20025;-77
2021/09/06 01:42:00;;;;;;;15.23;8.40;;;;;;;10.31;100.00;101466.34;5220362;28;20449;-76
2021/09/06 01:44:30;;;;;;;12.75;7.80;;;;;;;10.32;100.00;101462.81;5221027;28;20049;-77
2021/09/06 01:47:01;;;;;;;15.23;8.25;;;;;;;10.34;100.00;101454.03;5219490;28;20368;-76
2021/09/06 01:49:31;;;;;;;15.00;8.35;;;;;;;10.42;100.00;101464.34;5215905;28;20112;-77
2021/09/06 01:52:02;;;;;;;12.25;7.55;;;;;;;10.45;100.00;101459.03;5208635;28;20142;-77
2021/09/06 01:54:33;;;;;;;12.45;8.23;;;;;;;10.31;100.00;101450.66;5211822;28;20033;-77
2021/09/06 01:57:03;;;;;;;13.15;8.57;;;;;;;10.19;100.00;101456.97;5217107;28;20370;-77
2021/09/06 01:59:33;;;;;;;12.20;7.75;;;;;;;10.16;100.00;101454.41;5221098;28;20216;-76
2021/09/06 02:02:04;;;;;;;11.60;7.95;;;;;;;10.19;100.00;101453.50;5224369;28;20109;-77
2021/09/06 02:04:34;;;;;;;11.93;8.15;;;;;;;10.19;100.00;101454.34;5219412;28;20550;-78
2021/09/06 02:07:06;;;;;;;11.30;7.35;;;;;;;9.98;100.00;101456.50;5220542;28;20052;-77
2021/09/06 02:09:36;;;;;;;12.45;8.07;;;;;;;9.83;100.00;101462.84;5221310;28;20089;-78
2021/09/06 02:12:06;;;;;;;11.65;7.28;;;;;;;9.78;100.00;101454.25;5221419;28;20049;-77
2021/09/06 02:14:37;;;;;;;10.60;6.90;;;;;;;9.74;100.00;101457.81;5225143;28;20087;-77
2021/09/06 02:17:07;;;;;;;12.52;7.65;;;;;;;9.68;100.00;101457.06;5221196;28;20036;-77
2021/09/06 02:19:37;;;;;;;10.70;7.18;;;;;;;9.57;100.00;101464.22;5202175;28;20044;-78
2021/09/06 02:22:08;;;;;;;9.48;6.70;;;;;;;9.67;100.00;101460.56;5219149;28;20031;-77
2021/09/06 02:24:38;;;;;;;9.40;6.43;;;;;;;9.69;100.00;101472.69;5221716;28;20051;-77
2021/09/06 02:27:08;;;;;;;10.68;7.32;;;;;;;9.67;100.00;101471.84;5219680;28;20037;-77
2021/09/06 02:29:38;;;;;;;9.18;6.18;;;;;;;9.67;100.00;101477.06;5222352;28;20036;-77
2021/09/06 02:32:09;;;;;;;10.30;6.57;;;;;;;9.58;100.00;101471.16;5224812;28;20037;-77
2021/09/06 02:34:39;;;;;;;11.68;7.38;;;;;;;9.57;100.00;101466.81;5221304;28;20060;-77
2021/09/06 02:37:09;;;;;;;11.45;7.20;;;;;;;9.44;100.00;101471.41;5221927;28;20029;-78
2021/09/06 02:39:40;;;;;;;11.20;7.70;;;;;;;9.40;100.00;101472.34;5220427;28;20057;-77
2021/09/06 02:42:10;;;;;;;10.95;7.28;;;;;;;9.56;100.00;101473.81;5221906;28;20092;-76
2021/09/06 02:44:40;;;;;;;8.85;6.03;;;;;;;9.71;100.00;101467.44;5220045;28;20076;-77
2021/09/06 02:47:10;;;;;;;8.30;6.13;;;;;;;9.80;100.00;101468.16;5220799;28;20020;-78
2021/09/06 02:49:41;;;;;;;8.30;6.30;;;;;;;9.70;100.00;101461.38;5202195;28;20048;-77
2021/09/06 02:52:11;;;;;;;9.10;6.38;;;;;;;9.32;100.00;101458.53;5211439;28;20025;-77
2021/09/06 02:54:41;;;;;;;9.18;6.30;;;;;;;9.12;100.00;101462.38;5217847;28;20028;-77
2021/09/06 02:57:12;;;;;;;9.00;6.57;;;;;;;9.21;100.00;101450.06;5219811;28;20060;-78
2021/09/06 02:59:42;;;;;;;9.27;6.75;;;;;;;9.32;100.00;101462.91;5224360;28;20029;-77
2021/09/06 03:02:13;;;;;;;8.40;6.28;;;;;;;9.41;100.00;101457.53;5199881;28;20025;-77
2021/09/06 03:04:43;;;;;;;8.68;6.70;;;;;;;9.41;100.00;101452.31;5219174;28;20394;-78
2021/09/06 03:07:13;;;;;;;9.68;6.95;;;;;;;9.52;100.00;101456.47;5221483;28;20031;-77
2021/09/06 03:09:43;;;;;;;9.25;6.68;;;;;;;9.49;100.00;101456.50;5224383;28;20025;-77
2021/09/06 03:12:14;;;;;;;9.98;6.90;;;;;;;9.61;100.00;101455.44;5222439;28;20056;-78
2021/09/06 03:14:44;;;;;;;9.82;7.15;;;;;;;9.56;100.00;101452.06;5223722;28;20032;-78
2021/09/06 03:17:14;;;;;;;10.50;7.15;;;;;;;9.54;100.00;101457.31;5220773;28;20052;-78
2021/09/06 03:19:44;;;;;;;10.50;7.25;;;;;;;9.46;100.00;101460.94;5220670;28;20099;-77
2021/09/06 03:22:16;;;;;;;9.95;7.30;;;;;;;9.59;100.00;101452.00;5209901;28;20037;-78
2021/09/06 03:24:46;;;;;;;10.35;6.55;;;;;;;9.68;100.00;101449.25;5217167;28;20052;-78
2021/09/06 03:27:17;;;;;;;10.18;6.97;;;;;;;9.33;100.00;101443.78;5217569;28;20037;-78
2021/09/06 03:29:47;;;;;;;10.80;7.63;;;;;;;9.51;100.00;101446.06;5225301;28;20025;-77
2021/09/06 03:32:17;;;;;;;11.23;7.72;;;;;;;9.58;100.00;101434.63;5223160;28;20032;-77
2021/09/06 03:34:48;;;;;;;11.88;7.55;;;;;;;9.42;100.00;101438.38;5223302;28;20029;-77
2021/09/06 03:37:18;;;;;;;9.98;6.88;;;;;;;9.27;100.00;101441.25;5219436;28;20035;-77
2021/09/06 03:39:48;;;;;;;9.95;7.35;;;;;;;9.27;100.00;101438.63;5222389;28;20068;-78
2021/09/06 03:42:18;;;;;;;11.98;7.13;;;;;;;9.22;100.00;101435.25;5219221;28;20029;-77
2021/09/06 03:44:49;;;;;;;10.38;7.15;;;;;;;9.11;100.00;101437.19;5222088;28;20039;-75
2021/09/06 03:47:19;;;;;;;10.18;6.60;;;;;;;8.87;100.00;101441.91;5217043;28;20291;-78
2021/09/06 03:49:49;;;;;;;9.20;6.00;;;;;;;9.04;100.00;101435.53;5203515;28;20017;-77
2021/09/06 03:52:20;;;;;;;9.00;6.05;;;;;;;9.18;100.00;101428.38;5208932;28;20108;-77
2021/09/06 03:54:50;;;;;;;9.48;6.40;;;;;;;9.11;100.00;101437.19;5218688;28;20031;-77
2021/09/06 03:57:20;;;;;;;9.20;6.30;;;;;;;9.01;100.00;101442.53;5218404;28;20107;-75
2021/09/06 03:59:50;;;;;;;9.27;6.55;;;;;;;9.12;100.00;101432.81;5226630;28;20027;-77
2021/09/06 04:02:21;;;;;;;12.68;7.22;;;;;;;9.16;100.00;101441.41;5217301;28;20043;-79
2021/09/06 04:04:53;;;;;;;9.27;6.47;;;;;;;9.12;100.00;101438.03;5221866;28;20032;-77
2021/09/06 04:07:23;;;;;;;8.15;6.30;;;;;;;9.18;100.00;101444.84;5218924;28;20104;-77
2021/09/06 04:09:54;;;;;;;8.95;6.35;;;;;;;9.17;100.00;101448.34;5218105;28;20060;-77
2021/09/06 04:12:24;;;;;;;8.38;5.75;;;;;;;9.13;100.00;101441.47;5219343;28;20548;-78
2021/09/06 04:14:54;;;;;;;9.02;6.05;;;;;;;9.24;100.00;101454.34;5206552;28;20051;-78
2021/09/06 04:17:25;;;;;;;8.30;6.30;;;;;;;9.33;100.00;101449.84;5224503;28;20040;-77
2021/09/06 04:19:55;;;;;;;7.68;5.68;;;;;;;9.34;100.00;101445.50;5206494;28;20021;-77
2021/09/06 04:22:25;;;;;;;9.00;5.97;;;;;;;9.21;100.00;101451.78;5212040;28;20684;-78
2021/09/06 04:24:55;;;;;;;9.27;6.47;;;;;;;9.05;100.00;101457.28;5221655;28;20080;-78
2021/09/06 04:27:26;;;;;;;8.73;6.23;;;;;;;9.05;100.00;101455.53;5220981;28;20037;-78
2021/09/06 04:29:56;;;;;;;10.00;6.97;;;;;;;9.23;100.00;101450.00;5226552;28;20372;-77
2021/09/06 04:32:26;;;;;;;8.65;5.97;;;;;;;9.27;100.00;101449.94;5224210;28;20036;-77
2021/09/06 04:34:57;;;;;;;9.65;5.63;;;;;;;9.06;100.00;101462.44;5242133;23;20048;-78
2021/09/06 04:37:27;;;;;;;8.65;6.30;;;;;;;9.07;100.00;101461.56;5225225;28;20039;-77
2021/09/06 04:39:58;;;;;;;8.60;6.13;;;;;;;9.02;100.00;101476.44;5230370;28;20024;-78
2021/09/06 04:42:28;;;;;;;8.00;5.68;;;;;;;9.15;100.00;101477.97;5231654;28;20017;-78
2021/09/06 04:44:58;;;;;;;8.00;5.75;;;;;;;9.14;100.00;101477.09;5217475;28;20025;-77
2021/09/06 04:47:28;;;;;;;8.77;6.18;;;;;;;8.89;100.00;101492.28;5211157;28;20112;-77
2021/09/06 04:49:59;;;;;;;8.63;6.38;;;;;;;8.85;100.00;101486.25;5209629;28;20600;-77
2021/09/06 04:52:29;;;;;;;9.10;5.97;;;;;;;8.93;100.00;101484.38;5200750;28;20033;-77
2021/09/06 04:54:59;;;;;;;9.35;6.40;;;;;;;8.89;100.00;101487.06;5208689;28;20021;-77
2021/09/06 04:57:30;;;;;;;9.27;6.10;;;;;;;8.94;100.00;101501.75;5209809;28;20364;-78
2021/09/06 05:00:00;;;;;;;9.15;5.85;;;;;;;9.03;100.00;101499.00;5214025;28;20032;-79
2021/09/06 05:02:30;;;;;;;9.93;6.60;;;;;;;9.15;100.00;101497.06;5213543;28;20521;-81
2021/09/06 05:05:01;;;;;;;8.15;5.82;;;;;;;9.11;100.00;101499.78;5211680;28;20154;-79
2021/09/06 05:07:31;;;;;;;8.65;5.95;;;;;;;9.14;100.00;101497.13;5210496;28;20021;-78
2021/09/06 05:10:02;;;;;;;7.53;5.70;;;;;;;9.32;100.00;101502.06;5212190;28;20021;-78
2021/09/06 05:12:32;;;;;;;7.90;5.55;;;;;;;9.43;100.00;101505.31;5210694;28;20032;-78
2021/09/06 05:15:03;;;;;;;8.88;6.10;;;;;;;9.45;100.00;101501.81;5211707;28;20075;-77
2021/09/06 05:17:33;;;;;;;9.05;6.20;;;;;;;9.40;100.00;101502.78;5211067;28;20039;-78
2021/09/06 05:20:04;;;;;;;7.93;5.63;;;;;;;9.34;100.00;101500.28;5211232;28;20013;-78
2021/09/06 05:22:34;;;;;;;8.43;5.90;;;;;;;9.46;100.00;101502.69;5200582;28;20108;-78
2021/09/06 05:25:05;;;;;;;8.65;5.88;;;;;;;9.49;100.00;101502.63;5208648;28;20123;-76
2021/09/06 05:27:35;;;;;;;7.20;5.60;;;;;;;9.56;100.00;101505.13;5211986;28;20064;-78
2021/09/06 05:30:06;;;;;;;8.38;5.93;;;;;;;9.83;100.00;101509.00;5216283;28;20028;-76
2021/09/06 05:32:37;;;;;;;7.68;5.65;;;;;;;9.96;100.00;101513.13;5213784;28;20025;-76
2021/09/06 05:35:08;;;;;;;6.43;4.90;;;;;;;10.11;100.00;101507.63;5214202;28;20029;-76
2021/09/06 05:37:38;;;;;;;7.65;5.00;;;;;;;10.06;100.00;101507.75;5214671;28;20498;-78
2021/09/06 05:40:09;;;;;;;10.57;5.47;;;;;;;10.12;100.00;101515.44;5213787;28;20050;-76
2021/09/06 05:42:39;;;;;;;7.05;5.25;;;;;;;10.17;100.00;101513.59;5214893;28;20067;-77
2021/09/06 05:45:10;;;;;;;7.47;5.82;;;;;;;10.15;100.00;101514.53;5213528;28;20498;-78
2021/09/06 05:47:40;;;;;;;7.32;5.55;;;;;;;10.02;100.00;101508.66;5216791;28;20048;-79
2021/09/06 05:50:17;;;;;;;7.80;5.22;;;;;;;9.95;100.00;101514.00;5214809;28;20466;-78
2021/09/06 05:52:47;;;;;;;7.68;5.45;;;;;;;10.31;100.00;101514.22;5205970;28;20559;-78
2021/09/06 05:55:17;;;;;;;6.95;5.18;;;;;;;10.38;100.00;101509.72;5213703;28;20116;-77
2021/09/06 05:57:48;;;;;;;6.70;4.88;;;;;;;10.40;100.00;101518.41;5217810;28;20475;-78
2021/09/06 06:00:18;;;;;;;7.10;5.38;;;;;;;10.43;100.00;101518.31;5218231;28;20032;-77
2021/09/06 06:02:48;;;;;;;7.53;5.07;;;;;;;10.64;100.00;101515.28;5219591;28;20036;-79
2021/09/06 06:05:18;;;;;;;6.28;4.40;;;;;;;10.96;100.00;101513.69;5213888;28;20476;-79
2021/09/06 06:07:49;;;;;;;5.18;4.10;;;;;;;11.17;100.00;101519.31;5217636;28;20128;-78
2021/09/06 06:10:19;;;;;;;6.33;5.00;;;;;;;10.76;100.00;101522.88;5213562;28;20021;-78
2021/09/06 06:12:49;;;;;;;6.15;4.45;;;;;;;10.45;100.00;101527.00;5217921;28;20310;-78
2021/09/06 06:15:20;;;;;;;7.60;5.53;;;;;;;10.42;100.00;101527.06;5213650;28;20021;-78
2021/09/06 06:17:50;;;;;;;6.47;4.78;;;;;;;10.89;100.00;101529.56;5217737;28;20283;-76
2021/09/06 06:20:20;;;;;;;7.45;5.32;;;;;;;10.80;100.00;101524.50;5212508;28;20021;-78
2021/09/06 06:22:51;;;;;;;7.50;5.38;;;;;;;10.50;100.00;101519.94;5204852;28;20036;-78
2021/09/06 06:25:21;;;;;;;7.35;5.50;;;;;;;10.86;100.00;101522.63;5213174;28;20025;-78
2021/09/06 06:27:51;;;;;;;7.07;5.50;;;;;;;11.63;100.00;101519.97;5217743;28;20044;-79
2021/09/06 06:30:23;;;;;;;6.15;4.78;;;;;;;12.26;100.00;101520.91;5215705;28;20063;-79
2021/09/06 06:32:53;;;;;;;6.18;4.55;;;;;;;12.45;99.83;101516.88;5219602;28;20052;-78
2021/09/06 06:35:23;;;;;;;6.30;4.85;;;;;;;12.46;100.00;101523.84;5213772;28;20060;-78
2021/09/06 06:37:54;;;;;;;7.53;5.35;;;;;;;12.75;100.00;101526.50;5216471;28;20021;-78
2021/09/06 06:40:24;;;;;;;6.43;4.70;;;;;;;12.52;100.00;101518.44;5213564;28;20024;-78
2021/09/06 06:42:54;;;;;;;6.43;4.93;;;;;;;13.08;100.00;101526.38;5215926;28;20033;-76
2021/09/06 06:45:25;;;;;;;5.97;4.63;;;;;;;12.95;100.00;101523.34;5210830;28;20029;-78
2021/09/06 06:47:55;;;;;;;6.72;4.93;;;;;;;13.63;100.00;101514.97;5215892;28;20509;-78
2021/09/06 06:50:25;;;;;;;6.77;4.80;;;;;;;13.14;100.00;101520.94;5211126;28;20042;-78
2021/09/06 06:52:56;;;;;;;5.80;4.45;;;;;;;13.25;100.00;101520.63;5203786;28;20283;-78
2021/09/06 06:55:26;;;;;;;5.90;4.60;;;;;;;13.27;100.00;101521.41;5212439;28;20029;-79
2021/09/06 06:57:56;;;;;;;6.20;4.82;;;;;;;14.05;99.97;101524.06;5215664;28;20028;-79
2021/09/06 07:00:27;;;;;;;6.13;4.78;;;;;;;14.98;92.64;101527.59;5216406;28;20072;-78
2021/09/06 07:02:57;;;;;;;5.68;4.47;;;;;;;15.35;88.22;101520.00;5217309;28;20474;-79
2021/09/06 07:05:27;;;;;;;5.47;3.95;;;;;;;16.28;88.41;101518.69;5212102;28;20060;-77
2021/09/06 07:07:58;;;;;;;5.63;4.28;;;;;;;17.37;82.52;101507.44;5215372;28;20046;-78
2021/09/06 07:10:28;;;;;;;5.80;4.23;;;;;;;17.42;81.49;101502.78;5212649;28;20433;-78
2021/09/06 07:12:58;;;;;;;5.03;3.95;;;;;;;17.09;84.26;101512.28;5215413;28;20271;-80
2021/09/06 07:15:32;;;;;;;5.18;4.43;;;;;;;17.23;81.69;101513.34;5213203;28;20026;-78
2021/09/06 07:18:04;;;;;;;4.55;3.60;;;;;;;17.27;85.10;101508.75;5213669;28;20079;-78
2021/09/06 07:20:35;;;;;;;4.95;3.80;;;;;;;16.74;88.13;101513.06;5211857;28;20024;-79
2021/09/06 07:23:05;;;;;;;5.20;3.67;;;;;;;16.59;89.12;101513.75;5203088;28;20028;-79
2021/09/06 07:25:36;;;;;;;6.15;4.70;;;;;;;16.35;90.50;101514.88;5213402;28;20036;-78
2021/09/06 07:28:06;;;;;;;5.95;4.88;;;;;;;16.39;90.66;101515.59;5213719;28;20060;-77
2021/09/06 07:30:37;;;;;;;4.85;3.95;;;;;;;18.02;84.37;101511.13;5216982;28;20387;-80
2021/09/06 07:33:07;;;;;;;4.80;3.78;;;;;;;18.70;82.09;101510.22;5215774;28;20483;-80
2021/09/06 07:35:37;;;;;;;5.03;4.00;;;;;;;19.11;78.17;101513.16;5213779;28;20060;-79
2021/09/06 07:38:07;;;;;;;4.68;3.95;;;;;;;18.87;80.75;101514.50;5213375;28;20752;-80
2021/09/06 07:40:38;;;;;;;6.18;4.28;;;;;;;19.57;81.13;101514.09;5214115;28;20021;-80
2021/09/06 07:43:08;;;;;;;5.60;3.95;;;;;;;20.49;78.14;101504.97;5212880;28;20091;-79
2021/09/06 07:45:38;;;;;;;6.00;4.73;;;;;;;18.66;83.85;101524.56;5214254;28;20029;-78
2021/09/06 07:48:09;;;;;;;5.00;4.17;;;;;;;20.03;82.00;101515.81;5213213;28;20314;-78
2021/09/06 07:50:41;;;;;;;5.07;4.00;;;;;;;20.78;77.21;101507.53;5210859;28;20789;-79
2021/09/06 07:53:11;;;;;;;4.95;3.83;;;;;;;22.05;71.90;101511.53;5202777;28;20067;-80
2021/09/06 07:55:43;;;;;;;5.30;4.03;;;;;;;24.24;68.12;101504.22;5212986;28;20391;-79
2021/09/06 07:58:13;;;;;;;4.78;3.70;;;;;;;24.20;68.14;101521.47;5212306;28;20033;-80
2021/09/06 08:00:44;;;;;;;4.72;3.67;;;;;;;22.59;71.29;101521.06;5217835;28;20021;-81
2021/09/06 08:03:14;;;;;;;6.35;3.90;;;;;;;23.02;70.88;101523.25;5214196;28;20155;-80
2021/09/06 08:05:44;;;;;;;5.20;3.67;;;;;;;24.52;66.35;101511.00;5214209;28;20102;-80
2021/09/06 08:08:15;;;;;;;4.32;3.17;;;;;;;24.18;68.87;101514.56;5212378;28;20766;-80
2021/09/06 08:10:45;;;;;;;6.93;5.30;;;;;;;24.33;66.03;101522.25;5214853;28;20108;-80
2021/09/06 08:13:16;;;;;;;5.95;4.47;;;;;;;26.58;60.60;101520.41;5212814;28;20391;-80
2021/09/06 08:15:46;;;;;;;7.60;5.55;;;;;;;27.10;60.35;101522.91;5214544;28;20044;-80
2021/09/06 08:18:16;;;;;;;8.97;6.23;;;;;;;26.53;60.89;101519.09;5212467;28;20040;-81
2021/09/06 08:20:47;;;;;;;8.63;5.67;;;;;;;26.54;62.13;101513.59;5211878;28;20785;-80
2021/09/06 08:23:17;;;;;;;9.80;7.03;;;;;;;26.47;59.56;101515.06;5202934;28;20321;-81
2021/09/06 08:25:47;;;;;;;9.82;7.25;;;;;;;25.99;61.17;101523.78;5215354;28;20271;-81
2021/09/06 08:28:18;;;;;;;8.63;7.35;;;;;;;25.52;64.26;101521.50;5211907;28;20536;-78
2021/09/06 08:30:48;;;;;;;10.43;7.87;;;;;;;23.92;66.32;101529.91;5217980;28;20490;-78
2021/09/06 08:33:19;;;;;;;8.00;6.50;;;;;;;27.53;60.08;101516.22;5214504;28;20271;-78
2021/09/06 08:35:49;;;;;;;9.15;6.43;;;;;;;28.08;55.27;101523.63;5208343;28;20049;-80
2021/09/06 08:38:19;;;;;;;7.93;6.20;;;;;;;25.50;63.75;101531.50;5215344;28;20028;-80
2021/09/06 08:40:50;;;;;;;8.40;6.33;;;;;;;26.80;59.55;101526.41;5211404;28;20052;-80
2021/09/06 08:43:21;;;;;;;10.15;6.82;;;;;;;25.08;64.29;101533.13;5210933;28;20808;-80
2021/09/06 08:45:51;;;;;;;8.77;6.57;;;;;;;25.27;64.74;101529.84;5214715;28;20032;-80
2021/09/06 08:48:22;;;;;;;8.88;6.47;;;;;;;25.56;63.23;101522.94;5210493;28;20037;-79
2021/09/06 08:50:52;;;;;;;8.50;6.60;;;;;;;24.29;67.67;101519.91;5211866;28;20176;-80
2021/09/06 08:53:23;;;;;;;8.30;6.22;;;;;;;26.40;61.90;101521.97;5210683;28;20387;-79
2021/09/06 08:55:54;;;;;;;9.50;6.27;;;;;;;26.04;63.50;101524.25;5214134;28;20037;-80
2021/09/06 08:58:24;;;;;;;8.25;5.97;;;;;;;27.96;57.09;101518.53;5193357;28;20271;-79
2021/09/06 09:00:56;;;;;;;7.70;6.40;;;;;;;25.88;62.15;101521.16;5216629;28;20025;-79
2021/09/06 09:03:26;;;;;;;7.18;5.00;;;;;;;25.94;63.68;101517.94;5212345;28;20029;-81
2021/09/06 09:06:00;;;;;;;7.72;5.28;;;;;;;27.82;59.29;101516.28;5213093;28;20070;-79
2021/09/06 09:08:32;;;;;;;6.40;4.75;;;;;;;28.35;58.21;101520.19;5213606;28;20025;-80
2021/09/06 09:11:05;;;;;;;9.20;5.57;;;;;;;28.76;57.33;101516.09;5217336;28;20037;-80
2021/09/06 09:13:40;;;;;;;7.25;5.10;;;;;;;28.42;57.29;101516.78;5215906;28;20017;-79
2021/09/06 09:16:11;;;;;;;7.03;5.38;;;;;;;28.72;56.29;101518.38;5214437;28;20060;-80
2021/09/06 09:18:41;;;;;;;8.00;5.63;;;;;;;27.32;58.19;101522.69;5217253;28;20029;-79
2021/09/06 09:21:11;;;;;;;8.27;6.43;;;;;;;24.17;67.60;101532.41;5211478;28;20291;-79
2021/09/06 09:23:44;;;;;;;9.70;6.88;;;;;;;25.13;64.93;101527.41;5209046;28;20020;-79
2021/09/06 09:26:15;;;;;;;9.60;6.30;;;;;;;25.28;65.56;101534.25;5215201;28;20025;-79
2021/09/06 09:28:46;;;;;;;12.27;7.90;;;;;;;23.97;68.06;101530.41;5217724;28;20537;-79
2021/09/06 09:31:18;;;;;;;9.18;6.95;;;;;;;24.40;67.46;101528.81;5219590;28;20021;-79
2021/09/06 09:33:51;;;;;;;11.23;7.63;;;;;;;23.08;71.74;101533.50;5217660;28;20086;-79
2021/09/06 09:36:35;;;;;;;10.27;7.47;;;;;;;22.88;72.53;101536.72;5214371;28;20028;-79
2021/09/06 09:39:10;;;;;;;12.48;7.88;;;;;;;22.84;72.76;101535.22;5215845;28;20085;-78
2021/09/06 09:41:43;;;;;;;14.60;9.20;;;;;;;21.99;76.80;101535.06;5216079;28;20108;-79
2021/09/06 09:44:22;;;;;;;13.23;8.55;;;;;;;22.57;74.92;101535.50;5214296;28;20032;-79
2021/09/06 09:46:59;;;;;;;13.45;9.13;;;;;;;22.68;74.75;101531.94;5210232;28;20025;-79
2021/09/06 09:49:33;;;;;;;11.18;8.20;;;;;;;22.91;72.28;101531.19;5216544;28;20040;-79
2021/09/06 09:52:06;;;;;;;12.98;8.05;;;;;;;22.70;73.89;101521.19;5206722;28;20380;-79
2021/09/06 09:54:36;;;;;;;15.60;9.57;;;;;;;22.72;72.98;101519.25;5215759;28;20033;-78
2021/09/06 09:57:07;;;;;;;13.27;9.05;;;;;;;22.18;75.97;101522.19;5216060;28;20398;-78
2021/09/06 09:59:37;;;;;;;14.60;9.15;;;;;;;21.86;77.02;101516.41;5217915;28;20032;-78
2021/09/06 10:02:35;;;;;;;12.50;8.87;;;;;;;21.75;77.87;101523.41;5218761;28;20029;-78
2021/09/06 10:05:08;;;;;;;14.27;9.75;;;;;;;22.01;76.51;101520.69;5213886;28;20399;-79
2021/09/06 10:07:44;;;;;;;13.68;9.18;;;;;;;22.23;75.72;101514.75;5214411;28;20167;-79
2021/09/06 10:10:25;;;;;;;;;;;;;;;22.21;75.13;101514.84;5199364;28;20029;-79
2021/09/06 10:13:04;;;;;;;12.52;9.35;;;;;;;22.31;75.50;101517.75;5210792;28;19913;-78
2021/09/06 10:15:36;;;;;;;14.50;9.57;;;;;;;22.02;75.68;101518.88;5214751;28;20025;-79
2021/09/06 10:18:14;;;;;;;14.38;9.60;;;;;;;22.15;74.95;101515.28;5215843;28;20025;-78
2021/09/06 10:20:45;;;;;;;15.50;9.82;;;;;;;21.97;75.67;101516.53;5213451;28;20024;-79
2021/09/06 10:23:16;;;;;;;14.60;9.95;;;;;;;21.77;74.88;101514.34;5208821;28;20021;-78
2021/09/06 10:25:49;;;;;;;16.00;9.70;;;;;;;21.80;75.96;101515.94;5216775;28;20074;-78
2021/09/06 10:28:30;;;;;;;14.00;9.45;;;;;;;22.22;74.89;101523.72;5213095;28;20057;-78
2021/09/06 10:31:01;;;;;;;13.38;8.65;;;;;;;22.16;73.60;101514.31;5202138;28;20017;-79
2021/09/06 10:33:33;;;;;;;18.30;9.95;;;;;;;22.03;75.24;101524.09;5213105;28;20480;-79
2021/09/06 10:36:17;;;;;;;14.55;9.32;;;;;;;21.93;74.58;101517.69;5222888;22;20430;-79
2021/09/06 10:39:08;;;;;;;14.80;9.48;;;;;;;22.00;76.06;101508.34;5190668;28;20470;-80
2021/09/06 10:41:46;;;;;;;17.23;10.02;;;;;;;21.91;75.35;101505.44;5205963;28;20029;-79
2021/09/06 10:44:20;;;;;;;14.40;9.40;;;;;;;21.98;74.81;101506.72;5188752;28;20021;-81
2021/09/06 10:46:56;;;;;;;16.67;9.52;;;;;;;22.03;75.33;101505.47;5172946;28;20017;-80
2021/09/06 10:49:27;;;;;;;15.02;10.57;;;;;;;21.92;73.37;101509.81;5198798;28;20021;-81
2021/09/06 10:51:59;;;;;;;13.88;9.43;;;;;;;21.90;72.89;101501.06;5187246;28;20022;-81
2021/09/06 10:54:32;;;;;;;14.40;10.18;;;;;;;22.10;73.81;101504.06;5191757;28;20036;-81
2021/09/06 10:57:05;;;;;;;13.48;8.77;;;;;;;22.38;73.66;101506.59;5196889;28;20044;-81
2021/09/06 10:59:36;;;;;;;14.80;9.93;;;;;;;22.28;72.84;101502.81;5198569;28;20266;-81
2021/09/06 11:02:07;;;;;;;15.98;9.48;;;;;;;22.25;75.41;101499.53;5200680;28;20059;-81
2021/09/06 11:04:39;;;;;;;14.38;9.02;;;;;;;22.48;73.34;101498.81;5196815;28;20065;-81
2021/09/06 11:07:11;;;;;;;15.32;9.70;;;;;;;22.15;72.84;101507.28;5178888;28;20110;-80
2021/09/06 11:09:41;;;;;;;15.60;9.63;;;;;;;22.48;71.35;101498.81;5179862;28;20438;-80
2021/09/06 11:12:11;;;;;;;16.80;9.90;;;;;;;22.65;71.90;101506.47;5195963;28;20034;-80
2021/09/06 11:14:44;;;;;;;15.82;10.02;;;;;;;22.49;72.70;101495.19;5197528;28;20284;-80
2021/09/06 11:17:23;;;;;;;15.98;9.93;;;;;;;22.85;71.18;101490.78;5195949;28;20268;-80
2021/09/06 11:19:56;;;;;;;16.63;10.25;;;;;;;22.89;71.72;101493.13;5191469;28;20018;-80
2021/09/06 11:22:28;;;;;;;13.75;9.80;;;;;;;22.67;70.31;101490.25;5187195;28;20030;-80
2021/09/06 11:25:02;;;;;;;13.65;10.10;;;;;;;22.90;71.51;101488.63;5177340;28;20072;-80
2021/09/06 11:27:36;;;;;;;16.55;10.00;;;;;;;22.71;72.23;101491.72;5195950;28;20148;-80
2021/09/06 11:30:07;;;;;;;15.13;10.15;;;;;;;22.83;72.92;101490.03;5200581;28;20030;-80
2021/09/06 11:32:47;;;;;;;16.08;9.20;;;;;;;22.59;72.49;101485.59;5198314;28;20353;-80
2021/09/06 11:35:21;;;;;;;13.35;9.40;;;;;;;22.48;71.91;101493.47;5194493;28;20072;-80
2021/09/06 11:37:53;;;;;;;16.00;10.40;;;;;;;22.44;73.09;101490.16;5191191;28;20022;-80